Time;durP1;ratioP1;P1;durP2;ratioP2;P2;SDS_P1;SDS_P2;PMS_P1;PMS_P2;Temp;Humidity;BMP_temperature;BMP_pressure;BME280_temperature;BME280_humidity;BME280_pressure;Samples;Min_cycle;Max_cycle;Signal;HPM_P1;HPM_P2
2021/12/22 00:02:51;;;;;;;19.70;16.20;;;;;;;1.87;47.44;98830.41;8256661;28;20401;-75
2021/12/22 00:06:55;;;;;;;22.93;17.40;;;;;;;2.14;49.89;98832.22;8282675;28;20241;-76
2021/12/22 00:10:59;;;;;;;22.83;17.47;;;;;;;2.01;48.00;98830.44;8282768;28;20241;-76
2021/12/22 00:15:03;;;;;;;25.13;16.43;;;;;;;1.86;47.66;98826.13;8281757;28;20229;-76
2021/12/22 00:19:06;;;;;;;22.13;16.53;;;;;;;1.91;47.89;98833.84;8282902;28;20244;-75
2021/12/22 00:23:09;;;;;;;24.00;17.33;;;;;;;1.79;47.56;98826.97;8282975;28;20425;-76
2021/12/22 00:27:14;;;;;;;19.90;15.30;;;;;;;1.76;48.05;98830.34;8274381;28;20233;-75
2021/12/22 00:31:20;;;;;;;18.97;14.33;;;;;;;1.64;47.60;98827.75;8282659;28;20241;-75
2021/12/22 00:35:29;;;;;;;17.00;13.00;;;;;;;1.56;47.36;98819.16;8282592;28;20536;-75
2021/12/22 00:39:32;;;;;;;15.77;12.13;;;;;;;1.58;47.47;98817.50;8282444;28;20243;-76
2021/12/22 00:43:36;;;;;;;14.37;10.30;;;;;;;1.51;47.54;98824.25;8281908;28;20241;-75
2021/12/22 00:47:39;;;;;;;13.83;10.50;;;;;;;1.46;47.50;98822.53;8281656;28;20532;-75
2021/12/22 00:51:42;;;;;;;13.70;10.13;;;;;;;1.47;47.02;98824.25;8281777;28;20341;-75
2021/12/22 00:55:46;;;;;;;12.67;10.40;;;;;;;1.44;47.16;98816.56;8281920;28;20536;-76
2021/12/22 00:59:51;;;;;;;13.03;10.47;;;;;;;1.42;47.26;98829.31;8281774;28;20244;-76
2021/12/22 01:03:53;;;;;;;15.90;12.63;;;;;;;1.48;47.28;98819.13;8251832;28;20461;-76
2021/12/22 01:07:56;;;;;;;17.90;12.60;;;;;;;1.46;47.05;98823.38;8249468;28;20265;-75
2021/12/22 01:11:59;;;;;;;22.03;14.27;;;;;;;1.34;47.05;98815.66;8249455;28;20238;-76
2021/12/22 01:16:04;;;;;;;21.93;14.77;;;;;;;1.43;46.68;98817.41;8249354;28;20230;-76
2021/12/22 01:20:16;;;;;;;23.43;16.33;;;;;;;1.43;46.61;98819.94;8249342;28;20234;-76
2021/12/22 01:24:29;;;;;;;23.23;16.00;;;;;;;1.38;46.69;98825.03;8248943;28;20426;-76
2021/12/22 01:28:33;;;;;;;22.33;15.83;;;;;;;1.44;46.94;98831.88;8251782;28;20250;-76
2021/12/22 01:32:37;;;;;;;19.40;14.97;;;;;;;1.29;46.56;98822.41;8255094;28;20241;-75
2021/12/22 01:36:41;;;;;;;22.03;14.33;;;;;;;1.21;46.35;98824.91;8255111;28;20528;-76
2021/12/22 01:40:45;;;;;;;18.80;13.70;;;;;;;1.27;47.35;98827.50;8254724;28;20234;-77
2021/12/22 01:45:14;;;;;;;17.60;14.17;;;;;;;1.28;46.96;98831.78;8256386;28;20238;-76
2021/12/22 01:49:42;;;;;;;18.60;13.10;;;;;;;1.27;46.76;98837.72;8256720;28;20230;-76
2021/12/22 01:53:47;;;;;;;16.80;12.63;;;;;;;1.16;47.14;98845.31;8255015;28;20233;-76
2021/12/22 01:57:51;;;;;;;20.17;13.30;;;;;;;1.11;47.06;98846.97;8254354;28;20237;-77
2021/12/22 02:01:54;;;;;;;18.40;13.57;;;;;;;1.03;47.22;98845.19;8254351;28;20557;-76
2021/12/22 02:05:59;;;;;;;15.80;13.13;;;;;;;1.05;46.86;98840.94;8253981;28;20249;-76
2021/12/22 02:10:18;;;;;;;19.03;13.20;;;;;;;1.02;47.00;98846.91;8254389;28;20249;-77
2021/12/22 02:14:21;;;;;;;14.53;12.00;;;;;;;1.17;46.32;98848.72;8253443;28;20233;-76
2021/12/22 02:18:25;;;;;;;18.10;12.80;;;;;;;1.12;46.68;98843.59;8253668;28;20248;-76
2021/12/22 02:22:30;;;;;;;17.03;12.60;;;;;;;1.08;46.63;98851.19;8253323;28;20234;-76
2021/12/22 02:26:37;;;;;;;18.00;13.33;;;;;;;1.11;46.72;98851.22;8253351;28;20230;-77
2021/12/22 02:30:41;;;;;;;17.33;13.63;;;;;;;1.10;46.54;98841.84;8252975;28;20249;-77
2021/12/22 02:34:47;;;;;;;20.07;14.70;;;;;;;1.10;46.91;98841.84;8253144;28;20250;-77
2021/12/22 02:38:53;;;;;;;20.17;14.33;;;;;;;1.14;46.79;98848.69;8253000;28;20437;-76
2021/12/22 02:43:04;;;;;;;19.37;14.70;;;;;;;0.93;46.01;98845.13;8252975;28;20234;-77
2021/12/22 02:47:22;;;;;;;20.37;15.03;;;;;;;0.90;45.87;98850.19;8253036;28;20234;-77
2021/12/22 02:51:28;;;;;;;20.53;14.60;;;;;;;0.93;46.19;98841.72;8252408;28;20241;-76
2021/12/22 02:55:44;;;;;;;19.03;13.70;;;;;;;0.81;46.63;98839.91;8252656;28;20536;-76
2021/12/22 03:00:03;;;;;;;19.20;14.00;;;;;;;0.84;47.05;98849.28;8252339;28;20234;-77
2021/12/22 03:04:12;;;;;;;17.97;13.63;;;;;;;0.84;46.73;98842.50;8252006;28;20269;-77
2021/12/22 03:08:15;;;;;;;16.40;13.13;;;;;;;0.91;46.22;98851.03;8244284;28;20234;-77
2021/12/22 03:12:22;;;;;;;17.30;12.50;;;;;;;0.94;46.81;98858.75;8252256;28;20253;-77
2021/12/22 03:16:25;;;;;;;15.50;12.40;;;;;;;0.91;46.52;98862.09;8251746;28;20238;-77
2021/12/22 03:20:28;;;;;;;19.10;13.60;;;;;;;0.90;46.59;98859.56;8251804;28;20242;-76
2021/12/22 03:24:33;;;;;;;20.43;14.17;;;;;;;0.89;46.33;98870.59;8251574;28;20242;-77
2021/12/22 03:28:38;;;;;;;15.33;12.70;;;;;;;0.85;46.66;98871.41;8251915;28;20249;-77
2021/12/22 03:32:41;;;;;;;16.83;13.23;;;;;;;0.90;46.37;98877.41;8251577;28;20240;-77
2021/12/22 03:36:44;;;;;;;20.27;13.13;;;;;;;0.83;46.25;98868.00;8251437;28;20544;-77
2021/12/22 03:40:47;;;;;;;18.13;13.20;;;;;;;0.77;46.38;98856.03;8251393;28;20547;-76
2021/12/22 03:44:53;;;;;;;17.23;13.33;;;;;;;0.80;46.40;98860.28;8251420;28;20316;-77
2021/12/22 03:48:58;;;;;;;16.80;13.17;;;;;;;0.71;46.30;98867.03;8251007;28;20541;-76
2021/12/22 03:53:01;;;;;;;16.83;12.77;;;;;;;0.72;46.22;98867.88;8250598;28;20245;-77
2021/12/22 03:57:04;;;;;;;18.43;13.87;;;;;;;0.73;46.07;98867.06;8250749;28;20239;-76
2021/12/22 04:01:08;;;;;;;18.40;12.73;;;;;;;0.63;46.30;98858.47;8250510;28;20230;-77
2021/12/22 04:05:12;;;;;;;16.67;13.00;;;;;;;0.54;46.19;98861.75;8241761;28;20234;-77
2021/12/22 04:09:16;;;;;;;18.27;13.23;;;;;;;0.58;45.95;98858.41;8250096;28;20245;-77
2021/12/22 04:13:20;;;;;;;17.77;13.67;;;;;;;0.64;46.11;98866.97;8250301;28;20245;-77
2021/12/22 04:17:24;;;;;;;20.37;13.30;;;;;;;0.53;45.68;98871.94;8250510;28;20242;-76
2021/12/22 04:21:27;;;;;;;17.60;13.73;;;;;;;0.58;45.87;98880.50;8250008;28;20248;-76
2021/12/22 04:25:30;;;;;;;17.63;13.50;;;;;;;0.69;46.24;98866.16;8250042;28;20234;-76
2021/12/22 04:29:33;;;;;;;18.30;12.93;;;;;;;0.58;46.13;98868.59;8250149;28;20551;-76
2021/12/22 04:33:38;;;;;;;17.97;13.50;;;;;;;0.62;46.21;98859.28;8250114;28;20238;-76
2021/12/22 04:37:40;;;;;;;20.07;13.60;;;;;;;0.47;45.94;98851.50;8250147;28;20230;-76
2021/12/22 04:41:43;;;;;;;19.27;13.73;;;;;;;0.56;46.06;98862.63;8249928;28;20234;-76
2021/12/22 04:45:47;;;;;;;23.00;13.43;;;;;;;0.55;45.82;98865.16;8250201;28;20233;-76
2021/12/22 04:49:51;;;;;;;17.00;13.43;;;;;;;0.53;45.90;98864.28;8250325;28;20495;-76
2021/12/22 04:54:01;;;;;;;17.10;13.43;;;;;;;0.52;45.90;98858.34;8249936;28;20237;-76
2021/12/22 04:58:05;;;;;;;17.23;13.60;;;;;;;0.42;45.81;98860.78;8275134;28;20291;-77
2021/12/22 05:02:09;;;;;;;19.00;13.50;;;;;;;0.46;45.23;98865.94;8267500;28;20244;-77
2021/12/22 05:06:14;;;;;;;19.10;14.33;;;;;;;0.46;45.14;98854.88;8255408;28;20422;-76
2021/12/22 05:10:18;;;;;;;17.13;13.53;;;;;;;0.46;45.33;98853.19;8256057;28;20537;-77
2021/12/22 05:14:21;;;;;;;17.50;13.73;;;;;;;0.33;45.15;98856.44;8255693;28;20234;-76
2021/12/22 05:18:48;;;;;;;22.17;13.87;;;;;;;0.47;45.83;98851.50;8256063;28;20549;-77
2021/12/22 05:22:49;;;;;;;19.00;13.90;;;;;;;0.23;45.58;98862.25;8255362;28;20241;-78
2021/12/22 05:26:52;;;;;;;17.97;13.77;;;;;;;0.38;45.69;98860.75;8255147;28;20230;-78
2021/12/22 05:30:55;;;;;;;19.47;14.53;;;;;;;0.42;45.33;98860.78;8254876;28;20242;-76
2021/12/22 05:34:59;;;;;;;18.23;13.87;;;;;;;0.31;45.80;98864.06;8254908;28;20238;-76
2021/12/22 05:39:03;;;;;;;17.63;13.67;;;;;;;0.17;46.01;98868.13;8254486;28;20439;-77
2021/12/22 05:43:06;;;;;;;18.07;14.17;;;;;;;0.11;46.12;98873.16;8254441;28;20242;-76
2021/12/22 05:47:09;;;;;;;18.80;13.40;;;;;;;0.23;45.67;98870.78;8254706;28;20238;-76
2021/12/22 05:51:12;;;;;;;18.40;14.03;;;;;;;0.10;45.99;98872.31;8254297;28;20529;-76
2021/12/22 05:55:17;;;;;;;16.00;13.37;;;;;;;0.15;45.49;98867.28;8254516;28;20234;-76
2021/12/22 05:59:19;;;;;;;18.97;14.33;;;;;;;0.27;45.34;98866.59;8249314;28;20233;-76
2021/12/22 06:03:23;;;;;;;19.87;15.30;;;;;;;0.16;45.16;98877.47;8253997;28;20237;-76
2021/12/22 06:07:26;;;;;;;22.63;18.37;;;;;;;0.04;44.85;98872.25;8253701;28;20234;-76
2021/12/22 06:11:30;;;;;;;26.30;18.57;;;;;;;0.20;45.15;98873.28;8252774;28;20234;-76
2021/12/22 06:15:34;;;;;;;20.20;17.40;;;;;;;0.19;45.03;98866.47;8253272;28;20241;-75
2021/12/22 06:19:37;;;;;;;20.27;16.73;;;;;;;0.16;45.45;98859.66;8253580;28;20277;-76
2021/12/22 06:23:40;;;;;;;29.53;19.47;;;;;;;0.07;45.39;98856.16;8253389;28;20396;-76
2021/12/22 06:27:45;;;;;;;20.47;15.70;;;;;;;0.15;45.70;98857.09;8253503;28;20230;-77
2021/12/22 06:31:48;;;;;;;21.00;15.87;;;;;;;0.14;45.36;98851.13;8253444;28;20246;-76
2021/12/22 06:35:51;;;;;;;19.97;15.20;;;;;;;0.16;45.65;98854.56;8253608;28;20234;-76
2021/12/22 06:39:54;;;;;;;28.53;19.23;;;;;;;0.16;46.26;98846.06;8253500;28;20563;-76
2021/12/22 06:43:58;;;;;;;28.43;22.27;;;;;;;0.11;45.80;98855.34;8253319;28;20241;-76
2021/12/22 06:48:02;;;;;;;27.00;20.20;;;;;;;0.22;45.51;98861.41;8253262;28;20540;-76
2021/12/22 06:52:05;;;;;;;26.73;20.37;;;;;;;0.09;46.28;98857.88;8252632;28;20249;-77
2021/12/22 06:56:08;;;;;;;27.53;20.87;;;;;;;0.20;46.40;98852.91;8252943;28;20238;-76
2021/12/22 07:00:14;;;;;;;27.23;20.07;;;;;;;0.15;46.42;98850.31;8252446;28;20234;-76
2021/12/22 07:04:17;;;;;;;23.87;19.17;;;;;;;0.15;45.96;98860.50;8219727;28;20237;-76
2021/12/22 07:08:20;;;;;;;27.50;19.27;;;;;;;0.20;46.02;98863.09;8220154;28;20249;-76
2021/12/22 07:12:23;;;;;;;19.57;17.00;;;;;;;0.21;46.09;98871.59;8220029;28;20431;-76
2021/12/22 07:16:27;;;;;;;21.17;16.27;;;;;;;0.18;47.16;98892.78;8220055;28;20230;-77
2021/12/22 07:20:30;;;;;;;19.23;15.60;;;;;;;0.20;46.64;98896.22;8219476;28;20327;-77
2021/12/22 07:24:33;;;;;;;20.23;15.30;;;;;;;0.29;46.85;98901.44;8218879;28;20231;-77
2021/12/22 07:28:36;;;;;;;19.30;14.47;;;;;;;0.34;46.09;98906.56;8219946;28;20533;-76
2021/12/22 07:32:40;;;;;;;19.30;14.07;;;;;;;0.26;45.95;98908.16;8219556;28;20246;-77
2021/12/22 07:36:47;;;;;;;19.20;13.80;;;;;;;0.41;46.81;98910.03;8219107;28;20237;-76
2021/12/22 07:40:50;;;;;;;19.70;13.67;;;;;;;0.35;46.34;98918.47;8219241;28;20423;-76
2021/12/22 07:44:53;;;;;;;20.60;15.17;;;;;;;0.45;45.99;98911.78;8219266;28;20560;-77
2021/12/22 07:48:58;;;;;;;19.77;15.60;;;;;;;0.51;45.63;98907.59;8219202;28;20242;-76
2021/12/22 07:53:01;;;;;;;17.80;15.47;;;;;;;0.45;46.01;98917.72;8218932;28;20265;-76
2021/12/22 07:57:05;;;;;;;19.30;15.07;;;;;;;1.65;44.09;98917.97;8218909;28;20245;-76
2021/12/22 08:01:07;;;;;;;20.67;14.93;;;;;;;3.77;39.34;98909.94;8225988;28;20242;-76
2021/12/22 08:05:12;;;;;;;19.93;13.93;;;;;;;4.00;38.22;98905.63;8250408;28;20297;-76
2021/12/22 08:09:16;;;;;;;19.57;15.33;;;;;;;5.22;36.50;98905.00;8250365;28;20238;-77
2021/12/22 08:13:18;;;;;;;19.00;14.67;;;;;;;5.05;36.87;98910.25;8250075;28;20238;-76
2021/12/22 08:17:21;;;;;;;21.90;14.17;;;;;;;2.81;41.31;98911.66;8250626;28;20242;-76
2021/12/22 08:21:26;;;;;;;22.57;15.40;;;;;;;2.18;43.40;98914.84;8249815;28;20241;-76
2021/12/22 08:25:29;;;;;;;22.87;17.07;;;;;;;1.86;45.10;98917.25;8249931;28;20257;-77
2021/12/22 08:29:32;;;;;;;24.03;17.87;;;;;;;1.97;45.01;98914.75;8250186;28;20242;-76
2021/12/22 08:33:42;;;;;;;25.20;19.47;;;;;;;1.80;45.72;98922.31;8250131;28;20238;-76
2021/12/22 08:42:08;;;;;;;26.93;17.97;;;;;;;0.95;47.52;98934.41;8260426;28;20237;-76
2021/12/22 08:46:11;;;;;;;26.53;18.73;;;;;;;1.33;47.76;98926.22;8260575;28;20540;-76
2021/12/22 08:50:16;;;;;;;28.07;20.20;;;;;;;1.09;48.60;98934.56;8259994;28;20261;-76
2021/12/22 08:54:20;;;;;;;23.50;17.33;;;;;;;0.92;49.24;98925.03;8260310;28;20241;-76
2021/12/22 08:58:24;;;;;;;21.47;16.90;;;;;;;0.92;49.50;98916.53;8260223;28;20230;-76
2021/12/22 09:02:27;;;;;;;22.70;15.80;;;;;;;1.19;49.24;98923.56;8260131;28;20233;-77
2021/12/22 09:06:31;;;;;;;20.83;16.03;;;;;;;0.80;50.49;98924.06;8260215;28;20241;-75
2021/12/22 09:10:35;;;;;;;19.53;15.43;;;;;;;0.38;50.51;98926.13;8260066;28;20234;-76
2021/12/22 09:14:41;;;;;;;21.43;15.23;;;;;;;-0.17;52.87;98920.34;8260395;28;20427;-76
2021/12/22 09:18:44;;;;;;;20.20;13.87;;;;;;;0.56;50.96;98925.50;8260419;28;20409;-75
2021/12/22 09:22:47;;;;;;;18.57;13.77;;;;;;;0.93;50.60;98936.97;8260324;28;20230;-76
2021/12/22 09:26:52;;;;;;;16.67;13.37;;;;;;;0.56;51.34;98935.72;8260126;28;20372;-76
2021/12/22 09:30:55;;;;;;;17.53;13.17;;;;;;;0.90;51.27;98931.81;8259703;28;20238;-76
2021/12/22 09:34:58;;;;;;;21.73;15.30;;;;;;;0.77;51.91;98924.88;8259897;28;20253;-75
2021/12/22 09:39:01;;;;;;;18.37;13.23;;;;;;;1.02;50.92;98923.41;8259950;28;20234;-75
2021/12/22 09:43:07;;;;;;;15.43;13.63;;;;;;;1.44;50.62;98914.41;8259283;28;20237;-75
2021/12/22 09:47:11;;;;;;;19.03;13.73;;;;;;;1.47;50.57;98906.78;8258995;28;20430;-78
2021/12/22 09:55:35;;;;;;;18.93;14.67;;;;;;;1.62;51.01;98906.03;8254264;28;20234;-75
2021/12/22 09:59:41;;;;;;;17.20;14.30;;;;;;;1.21;52.36;98896.38;8254291;28;20234;-75
2021/12/22 10:03:44;;;;;;;22.37;15.30;;;;;;;1.36;51.64;98890.53;8253894;28;20245;-74
2021/12/22 10:08:05;;;;;;;18.83;15.47;;;;;;;1.05;53.38;98885.19;8253687;28;20252;-75
2021/12/22 10:12:14;;;;;;;18.63;14.50;;;;;;;1.80;51.59;98869.53;8253827;28;20557;-74
2021/12/22 10:16:27;;;;;;;17.37;14.30;;;;;;;0.81;53.09;98872.22;8253352;28;20237;-74
2021/12/22 10:20:30;;;;;;;16.60;13.07;;;;;;;4.70;61.88;98871.13;8253720;28;20238;-69
2021/12/22 10:24:37;;;;;;;15.93;12.23;;;;;;;4.64;49.92;98858.31;8253563;28;20250;-70
2021/12/22 10:28:50;;;;;;;15.77;13.52;;;;;;;4.88;45.14;98841.91;8253200;28;20404;-75
2021/12/22 10:33:13;;;;;;;15.67;13.50;;;;;;;3.83;47.16;98841.59;8253272;28;20249;-74
2021/12/22 10:37:31;;;;;;;16.83;13.93;;;;;;;2.43;49.85;98844.22;8252763;28;20229;-74
2021/12/22 10:41:34;;;;;;;17.53;13.30;;;;;;;3.39;48.21;98839.13;8252522;28;20234;-74
2021/12/22 10:45:37;;;;;;;20.23;14.30;;;;;;;3.12;48.90;98840.88;8252168;28;20230;-74
2021/12/22 10:49:42;;;;;;;18.27;13.77;;;;;;;3.32;47.91;98828.91;8252094;28;20260;-74
2021/12/22 10:53:46;;;;;;;18.40;14.97;;;;;;;3.36;47.88;98827.19;8253665;28;20245;-74
2021/12/22 10:57:49;;;;;;;20.63;14.13;;;;;;;3.67;49.13;98827.13;8252322;28;20237;-74
2021/12/22 11:02:05;;;;;;;23.33;14.43;;;;;;;3.24;49.18;98825.50;8250346;28;20245;-73
2021/12/22 11:06:17;;;;;;;20.53;14.40;;;;;;;3.54;48.35;98818.63;8249400;28;20307;-73
2021/12/22 11:10:25;;;;;;;22.00;14.63;;;;;;;2.47;50.45;98812.69;8251218;28;20248;-74
2021/12/22 11:14:30;;;;;;;18.73;14.67;;;;;;;2.93;50.31;98801.63;8249210;28;20238;-73
2021/12/22 11:18:34;;;;;;;28.50;15.27;;;;;;;3.10;49.88;98796.50;8251348;28;20230;-74
2021/12/22 11:22:46;;;;;;;21.57;14.90;;;;;;;3.40;49.56;98787.06;8251595;28;20245;-74
2021/12/22 11:26:49;;;;;;;18.43;14.30;;;;;;;3.40;49.90;98779.41;8252149;28;20230;-74
2021/12/22 11:30:52;;;;;;;19.93;14.87;;;;;;;3.83;48.55;98780.09;8252000;28;20563;-74
2021/12/22 11:34:57;;;;;;;20.93;15.47;;;;;;;3.55;48.97;98781.91;8251763;28;20238;-74
2021/12/22 11:39:02;;;;;;;17.83;13.93;;;;;;;3.90;48.66;98778.34;8251266;28;20238;-74
2021/12/22 11:43:05;;;;;;;22.03;14.30;;;;;;;3.19;49.32;98780.28;8251151;28;20261;-74
2021/12/22 11:47:11;;;;;;;18.40;14.53;;;;;;;3.28;49.13;98780.28;8251117;28;20237;-64
2021/12/22 11:51:25;;;;;;;20.57;15.07;;;;;;;3.19;48.81;98767.50;8241858;28;20225;-65
2021/12/22 11:55:38;;;;;;;21.90;15.67;;;;;;;3.51;48.96;98772.53;8248916;28;20261;-65
2021/12/22 11:59:41;;;;;;;17.60;14.10;;;;;;;3.76;48.42;98754.53;8248841;28;20238;-65
2021/12/22 12:03:44;;;;;;;19.07;13.97;;;;;;;4.11;47.64;98764.56;8250615;28;20263;-64
2021/12/22 12:07:50;;;;;;;21.53;13.90;;;;;;;3.53;49.12;98756.31;8250291;28;20238;-64
2021/12/22 12:11:56;;;;;;;18.13;13.57;;;;;;;2.85;50.73;98754.75;8249893;28;20256;-64
2021/12/22 12:25:11;;;;;;;23.83;13.33;;;;;;;4.13;48.21;98737.22;8250439;28;20520;-64
2021/12/22 12:29:16;;;;;;;21.43;14.43;;;;;;;4.19;47.75;98737.22;8249929;28;20334;-64
2021/12/22 12:33:26;;;;;;;17.93;13.33;;;;;;;4.14;48.40;98727.84;8250350;28;20245;-66
2021/12/22 12:38:02;;;;;;;17.63;13.47;;;;;;;4.43;47.73;98727.63;8248423;28;20246;-64
2021/12/22 12:42:05;;;;;;;16.30;12.67;;;;;;;4.44;46.99;98725.06;8218205;28;20242;-64
2021/12/22 12:46:28;;;;;;;15.37;13.37;;;;;;;3.86;48.22;98720.28;8202751;28;20237;-65
2021/12/22 12:50:33;;;;;;;20.73;13.00;;;;;;;4.11;48.01;98713.31;8217905;28;20234;-64
2021/12/22 12:54:40;;;;;;;15.90;12.57;;;;;;;4.09;48.45;98705.66;8218279;28;20246;-65
2021/12/22 12:58:53;;;;;;;18.47;12.57;;;;;;;4.38;47.40;98701.16;8228070;28;20231;-65
2021/12/22 13:03:06;;;;;;;17.17;12.37;;;;;;;4.56;47.55;98693.31;8259787;28;20409;-64
2021/12/22 13:07:13;;;;;;;15.40;11.83;;;;;;;4.62;47.13;98692.41;8240814;28;20234;-65
2021/12/22 13:11:16;;;;;;;16.47;11.93;;;;;;;3.97;48.42;98692.06;8249304;28;20431;-64
2021/12/22 13:19:43;;;;;;;13.87;10.20;;;;;;;4.31;47.68;98680.69;8249125;28;20237;-64
2021/12/22 13:23:46;;;;;;;11.60;10.20;;;;;;;5.14;45.71;98684.22;8251100;28;20434;-64
2021/12/22 13:27:50;;;;;;;14.40;10.33;;;;;;;4.79;46.29;98687.13;8254924;28;20607;-63
2021/12/22 13:32:06;;;;;;;13.30;10.37;;;;;;;5.02;45.59;98677.47;8255065;28;20334;-64
2021/12/22 13:36:14;;;;;;;13.63;9.50;;;;;;;4.83;45.20;98686.22;8247130;28;20226;-64
2021/12/22 13:40:33;;;;;;;15.20;10.37;;;;;;;4.55;45.72;98694.19;8255063;28;20429;-64
2021/12/22 13:44:37;;;;;;;11.40;9.03;;;;;;;4.26;45.65;98684.16;8254857;28;20241;-64
2021/12/22 13:48:44;;;;;;;12.20;10.00;;;;;;;4.60;45.56;98679.59;8254864;28;20230;-64
2021/12/22 13:52:48;;;;;;;13.87;9.37;;;;;;;4.82;45.30;98685.41;8254588;28;20234;-63
2021/12/22 13:56:52;;;;;;;12.23;9.53;;;;;;;4.95;43.84;98692.97;8254505;28;20244;-64
2021/12/22 14:01:13;;;;;;;12.23;8.73;;;;;;;4.52;45.54;98683.94;8254142;28;20375;-63
2021/12/22 14:05:18;;;;;;;12.87;8.90;;;;;;;4.84;44.03;98688.78;8247073;28;20245;-64
2021/12/22 14:09:24;;;;;;;8.33;7.30;;;;;;;4.36;45.25;98683.25;8253777;28;20237;-64
2021/12/22 14:13:45;;;;;;;11.00;7.77;;;;;;;4.61;44.32;98681.31;8251532;28;20240;-65
2021/12/22 14:17:48;;;;;;;12.57;8.80;;;;;;;4.98;44.26;98680.94;8252366;28;20417;-65
2021/12/22 14:22:01;;;;;;;10.53;7.50;;;;;;;4.84;44.06;98670.00;8252463;28;20230;-64
2021/12/22 14:26:09;;;;;;;11.87;8.80;;;;;;;4.67;44.45;98671.00;8242996;28;20413;-64
2021/12/22 14:30:23;;;;;;;13.27;10.07;;;;;;;4.65;44.90;98670.16;8251874;28;20226;-65
2021/12/22 14:34:27;;;;;;;13.07;9.60;;;;;;;4.43;45.41;98664.34;8249812;28;20234;-64
2021/12/22 14:38:33;;;;;;;10.13;8.47;;;;;;;4.19;45.78;98655.16;8251578;28;20245;-64
2021/12/22 14:42:38;;;;;;;9.93;8.73;;;;;;;4.26;45.58;98643.97;8251796;28;20245;-64
2021/12/22 14:46:40;;;;;;;10.23;8.57;;;;;;;4.55;45.34;98645.47;8249414;28;20270;-65
2021/12/22 14:50:57;;;;;;;11.23;8.43;;;;;;;4.62;45.00;98648.81;8251512;28;20233;-63
2021/12/22 14:55:00;;;;;;;14.10;11.13;;;;;;;4.31;45.70;98642.22;8251357;28;20234;-65
2021/12/22 14:59:07;;;;;;;9.70;8.73;;;;;;;4.03;46.82;98644.16;8251303;28;20234;-65
2021/12/22 15:03:11;;;;;;;12.33;9.60;;;;;;;4.22;46.58;98639.72;8252073;28;20234;-65
2021/12/22 15:07:14;;;;;;;13.50;9.97;;;;;;;4.34;46.20;98633.69;8242032;28;20236;-65
2021/12/22 15:11:18;;;;;;;14.37;11.57;;;;;;;4.30;46.07;98630.28;8249679;28;20241;-64
2021/12/22 15:15:22;;;;;;;14.07;10.37;;;;;;;4.16;46.48;98626.97;8251838;28;20257;-64
2021/12/22 15:19:26;;;;;;;15.00;11.07;;;;;;;4.34;46.62;98626.00;8251165;28;20607;-64
2021/12/22 15:23:28;;;;;;;11.97;10.37;;;;;;;4.31;46.27;98618.31;8251453;28;20229;-64
2021/12/22 15:27:31;;;;;;;14.00;11.00;;;;;;;4.23;46.82;98613.25;8251310;28;20230;-65
2021/12/22 15:31:36;;;;;;;20.90;16.03;;;;;;;4.24;47.13;98620.06;8251381;28;20230;-63
2021/12/22 15:35:39;;;;;;;15.90;13.43;;;;;;;4.42;46.67;98631.88;8250904;28;20290;-64
2021/12/22 15:39:42;;;;;;;17.13;13.67;;;;;;;4.23;46.62;98636.31;8251137;28;20234;-64
2021/12/22 15:43:45;;;;;;;17.73;15.57;;;;;;;4.17;47.40;98630.38;8251129;28;20234;-64
2021/12/22 15:47:55;;;;;;;13.53;12.00;;;;;;;4.00;47.55;98627.94;8250765;28;20297;-64
2021/12/22 15:51:58;;;;;;;18.30;15.10;;;;;;;4.03;47.38;98613.41;8250560;28;20233;-64
2021/12/22 15:56:01;;;;;;;22.33;15.40;;;;;;;4.06;47.05;98613.38;8250833;28;20552;-64
2021/12/22 16:00:06;;;;;;;22.43;18.87;;;;;;;4.12;46.94;98615.03;8250904;28;20240;-64
2021/12/22 16:04:10;;;;;;;22.67;18.40;;;;;;;4.03;46.74;98615.13;8242369;28;20429;-65
2021/12/22 16:08:13;;;;;;;21.63;17.27;;;;;;;4.05;47.06;98603.13;8250140;28;20242;-64
2021/12/22 16:12:16;;;;;;;22.30;17.10;;;;;;;4.17;46.69;98612.44;8250275;28;20245;-64
2021/12/22 16:16:19;;;;;;;23.80;17.47;;;;;;;4.19;46.84;98615.84;8250506;28;20237;-64
2021/12/22 16:20:24;;;;;;;26.63;20.77;;;;;;;4.17;47.45;98621.00;8250412;28;20432;-64
2021/12/22 16:24:27;;;;;;;24.30;19.97;;;;;;;4.10;47.49;98620.19;8250078;28;20246;-64
2021/12/22 16:28:30;;;;;;;27.70;19.33;;;;;;;4.10;47.01;98615.06;8250004;28;20244;-64
2021/12/22 16:32:33;;;;;;;19.03;15.23;;;;;;;3.97;47.44;98617.72;8249993;28;20252;-64
2021/12/22 16:36:37;;;;;;;19.67;15.37;;;;;;;4.06;47.84;98607.41;8249854;28;20524;-64
2021/12/22 16:40:40;;;;;;;16.57;13.90;;;;;;;3.99;47.50;98605.75;8249581;28;20233;-63
2021/12/22 16:44:43;;;;;;;17.97;13.83;;;;;;;3.83;47.50;98587.09;8281210;28;20256;-64
2021/12/22 16:48:46;;;;;;;21.87;16.00;;;;;;;4.00;47.32;98584.38;8282328;28;20407;-64
2021/12/22 16:52:52;;;;;;;22.30;16.50;;;;;;;4.04;47.21;98599.72;8281847;28;20240;-64
2021/12/22 16:56:55;;;;;;;23.57;16.50;;;;;;;3.72;47.48;98592.28;8282169;28;20237;-64
2021/12/22 17:00:58;;;;;;;21.13;16.77;;;;;;;3.76;47.38;98590.56;8288274;28;20238;-64
2021/12/22 17:05:01;;;;;;;23.33;18.07;;;;;;;3.90;47.73;98593.84;8278958;28;20257;-64
2021/12/22 17:09:05;;;;;;;27.87;19.27;;;;;;;3.68;47.29;98600.84;8257308;28;20244;-63
2021/12/22 17:13:10;;;;;;;24.87;18.13;;;;;;;3.45;48.24;98601.00;8247467;28;20238;-64
2021/12/22 17:17:17;;;;;;;26.93;20.23;;;;;;;3.46;48.67;98595.84;8255970;28;20250;-64
2021/12/22 17:21:20;;;;;;;30.63;21.30;;;;;;;3.74;47.87;98584.59;8254598;28;20242;-64
2021/12/22 17:25:25;;;;;;;28.87;20.40;;;;;;;3.79;47.69;98590.50;8255547;28;20245;-63
2021/12/22 17:29:28;;;;;;;23.57;19.07;;;;;;;3.63;47.73;98610.25;8255155;28;20241;-63
2021/12/22 17:33:31;;;;;;;24.20;19.10;;;;;;;3.62;47.72;98596.63;8255294;28;20241;-63
2021/12/22 17:37:34;;;;;;;24.20;17.47;;;;;;;3.31;48.11;98585.69;8255592;28;20250;-64
2021/12/22 17:41:38;;;;;;;30.50;22.13;;;;;;;3.20;48.27;98588.31;8254541;28;20230;-64
2021/12/22 17:45:42;;;;;;;30.23;21.83;;;;;;;3.54;47.90;98593.22;8254799;28;20556;-64
2021/12/22 17:49:45;;;;;;;22.97;16.77;;;;;;;3.20;48.82;98601.13;8254532;28;20245;-64
2021/12/22 17:53:49;;;;;;;29.23;21.73;;;;;;;3.16;48.46;98572.97;8254403;28;20242;-64
2021/12/22 17:57:53;;;;;;;24.30;17.47;;;;;;;3.47;47.87;98581.34;8254374;28;20230;-64
2021/12/22 18:01:56;;;;;;;20.73;16.47;;;;;;;3.50;47.71;98594.13;8254596;28;20238;-64
2021/12/22 18:06:10;;;;;;;20.90;16.33;;;;;;;3.37;47.71;98597.59;8253159;28;20245;-64
2021/12/22 18:10:13;;;;;;;20.67;15.80;;;;;;;3.43;47.55;98592.47;8253573;28;20229;-63
2021/12/22 18:14:19;;;;;;;20.30;17.10;;;;;;;3.36;48.03;98598.47;8254270;28;20525;-64
2021/12/22 18:18:22;;;;;;;20.40;16.63;;;;;;;3.52;47.56;98585.59;8253875;28;20234;-63
2021/12/22 18:22:25;;;;;;;22.70;15.87;;;;;;;3.03;48.16;98590.09;8253730;28;20245;-63
2021/12/22 18:26:28;;;;;;;22.80;15.40;;;;;;;3.26;47.93;98577.19;8253827;28;20430;-63
2021/12/22 18:30:35;;;;;;;18.13;14.97;;;;;;;3.08;48.09;98585.78;8253606;28;20230;-64
2021/12/22 18:34:38;;;;;;;23.37;17.13;;;;;;;2.77;48.80;98580.81;8253174;28;20238;-63
2021/12/22 18:38:43;;;;;;;20.33;15.93;;;;;;;2.78;48.56;98574.84;8253482;28;20237;-63
2021/12/22 18:42:46;;;;;;;19.80;16.37;;;;;;;2.88;48.89;98571.38;8253770;28;20230;-63
2021/12/22 18:46:51;;;;;;;19.67;15.87;;;;;;;3.05;48.22;98575.59;8253042;28;20230;-63
2021/12/22 18:50:59;;;;;;;17.10;15.23;;;;;;;2.97;48.32;98582.44;8252631;28;20245;-64
2021/12/22 18:55:02;;;;;;;19.10;14.00;;;;;;;2.74;48.75;98579.13;8252891;28;20244;-64
2021/12/22 18:59:05;;;;;;;17.80;14.73;;;;;;;2.87;48.43;98577.34;8252527;28;20234;-64
2021/12/22 19:03:10;;;;;;;18.37;14.57;;;;;;;2.67;48.61;98569.75;8251910;28;20430;-64
2021/12/22 19:07:13;;;;;;;17.53;11.90;;;;;;;2.91;48.20;98570.50;8252369;28;20253;-64
2021/12/22 19:11:16;;;;;;;14.27;12.13;;;;;;;3.16;47.84;98562.72;8252456;28;20265;-63
2021/12/22 19:15:21;;;;;;;19.83;13.60;;;;;;;3.03;48.10;98557.69;8252229;28;20557;-63
2021/12/22 19:19:26;;;;;;;19.23;15.30;;;;;;;3.01;47.82;98555.97;8251936;28;20245;-63
2021/12/22 19:23:29;;;;;;;27.93;17.57;;;;;;;2.92;47.91;98556.88;8250896;28;20233;-63
2021/12/22 19:27:32;;;;;;;27.90;19.00;;;;;;;2.58;48.89;98558.69;8251938;28;20458;-63